createdAt,value
2018-05-26T00:01:05.992Z,98664.85
2018-05-26T00:03:33.675Z,98671.77
2018-05-26T00:06:01.144Z,98666.75
2018-05-26T00:08:28.620Z,98679.34
2018-05-26T00:10:56.130Z,98674.44
2018-05-26T00:13:23.598Z,98675.05
2018-05-26T00:15:51.091Z,98675.81
2018-05-26T00:18:18.551Z,98675.57
2018-05-26T00:20:46.042Z,98679.23
2018-05-26T00:23:13.547Z,98677.75
2018-05-26T00:25:41.020Z,98683.70
2018-05-26T00:28:08.532Z,98683.45
2018-05-26T00:30:36.016Z,98683.44
2018-05-26T00:36:33.836Z,98679.88
2018-05-26T00:39:01.340Z,98678.05
2018-05-26T00:41:28.826Z,98679.89
2018-05-26T00:43:56.303Z,98678.27
2018-05-26T00:46:23.796Z,98677.33
2018-05-26T00:48:51.275Z,98681.73
2018-05-26T00:51:21.571Z,98694.87
2018-05-26T00:53:49.065Z,98684.09
2018-05-26T00:56:16.811Z,98685.08
2018-05-26T00:58:44.517Z,98690.91
2018-05-26T01:01:12.311Z,98687.34
2018-05-26T01:03:39.809Z,98692.77
2018-05-26T01:06:07.300Z,98697.08
2018-05-26T01:08:34.788Z,98696.24
2018-05-26T01:11:02.264Z,98698.58
2018-05-26T01:13:29.776Z,98692.52
2018-05-26T01:15:57.360Z,98693.66
2018-05-26T01:18:24.856Z,98694.33
2018-05-26T01:20:52.339Z,98693.20
2018-05-26T01:23:19.841Z,98691.81
2018-05-26T01:25:47.937Z,98692.92
2018-05-26T01:28:15.445Z,98693.38
2018-05-26T01:30:42.924Z,98690.73
2018-05-26T01:33:10.432Z,98689.14
2018-05-26T01:35:37.910Z,98690.23
2018-05-26T01:38:05.412Z,98694.69
2018-05-26T01:40:32.893Z,98691.13
2018-05-26T01:43:00.613Z,98692.80
2018-05-26T01:45:28.097Z,98697.00
2018-05-26T01:47:55.580Z,98678.55
2018-05-26T01:50:23.078Z,98690.84
2018-05-26T01:52:51.389Z,98698.79
2018-05-26T01:55:18.876Z,98692.61
2018-05-26T01:57:46.353Z,98687.82
2018-05-26T02:00:13.849Z,98689.64
2018-05-26T02:02:41.335Z,98685.45
2018-05-26T02:05:08.849Z,98684.56
2018-05-26T02:07:36.327Z,98685.27
2018-05-26T02:10:03.824Z,98689.18
2018-05-26T02:12:31.303Z,98682.33
2018-05-26T02:14:58.799Z,98683.91
2018-05-26T02:17:26.341Z,98681.45
2018-05-26T02:19:53.853Z,98686.06
2018-05-26T02:22:21.338Z,98685.33
2018-05-26T02:24:48.831Z,98684.60
2018-05-26T02:27:16.319Z,98686.18
2018-05-26T02:29:43.831Z,98691.21
2018-05-26T02:32:11.296Z,98694.12
2018-05-26T02:34:38.799Z,98691.00
2018-05-26T02:37:06.294Z,98695.53
2018-05-26T02:39:33.794Z,98692.11
2018-05-26T02:42:01.276Z,98691.80
2018-05-26T02:44:28.789Z,98695.23
2018-05-26T02:46:56.259Z,98692.98
2018-05-26T02:49:23.760Z,98693.62
2018-05-26T02:51:51.241Z,98699.08
2018-05-26T02:54:18.736Z,98695.38
2018-05-26T02:56:46.218Z,98699.17
2018-05-26T02:59:13.712Z,98692.22
2018-05-26T03:01:41.197Z,98692.48
2018-05-26T03:04:08.155Z,98691.72
2018-05-26T03:06:41.156Z,98691.06
2018-05-26T03:09:14.028Z,98687.19
2018-05-26T03:11:47.001Z,98686.94
2018-05-26T03:14:20.000Z,98680.52
2018-05-26T03:16:51.346Z,98682.92
2018-05-26T03:19:18.843Z,98685.33
2018-05-26T03:21:46.325Z,98689.52
2018-05-26T03:24:13.824Z,98685.97
2018-05-26T03:26:41.299Z,98686.31
2018-05-26T03:29:08.801Z,98692.05
2018-05-26T03:31:36.275Z,98692.31
2018-05-26T03:34:03.759Z,98687.59
2018-05-26T03:36:31.263Z,98688.20
2018-05-26T03:38:58.737Z,98693.64
2018-05-26T03:41:26.227Z,98696.62
2018-05-26T03:43:53.701Z,98694.59
2018-05-26T03:46:21.192Z,98702.34
2018-05-26T03:48:48.671Z,98703.96
2018-05-26T03:51:16.167Z,98703.66
2018-05-26T03:53:43.646Z,98702.48
2018-05-26T03:56:22.882Z,98704.87
2018-05-26T03:59:02.074Z,98716.79
2018-05-26T04:01:29.563Z,98715.62
2018-05-26T04:03:57.051Z,98712.72
2018-05-26T04:06:24.543Z,98709.09
2018-05-26T04:08:52.023Z,98717.09
2018-05-26T04:11:19.813Z,98720.27
2018-05-26T04:13:47.302Z,98712.59
2018-05-26T04:16:14.780Z,98733.13
2018-05-26T04:18:42.289Z,98734.95
2018-05-26T04:21:10.399Z,98733.06
2018-05-26T04:23:37.893Z,98735.84
2018-05-26T04:26:05.378Z,98735.02
2018-05-26T04:28:32.894Z,98733.51
2018-05-26T04:31:00.367Z,98734.88
2018-05-26T04:33:27.853Z,98733.30
2018-05-26T04:35:55.364Z,98735.67
2018-05-26T04:38:22.873Z,98741.29
2018-05-26T04:40:50.379Z,98743.68
2018-05-26T04:43:17.864Z,98744.13
2018-05-26T04:45:45.340Z,98742.60
2018-05-26T04:48:13.408Z,98741.68
2018-05-26T04:50:40.887Z,98741.88
2018-05-26T04:53:08.375Z,98748.73
2018-05-26T04:55:35.849Z,98752.91
2018-05-26T04:58:03.324Z,98751.42
2018-05-26T05:00:30.815Z,98750.05
2018-05-26T05:02:58.283Z,98748.57
2018-05-26T05:05:25.798Z,98751.63
2018-05-26T05:07:53.277Z,98750.63
2018-05-26T05:10:20.747Z,98749.66
2018-05-26T05:12:48.241Z,98754.30
2018-05-26T05:15:15.711Z,98759.14
2018-05-26T05:17:43.206Z,98764.34
2018-05-26T05:20:10.683Z,98757.31
2018-05-26T05:22:38.156Z,98764.91
2018-05-26T05:25:05.649Z,98760.89
2018-05-26T05:27:33.139Z,98751.99
2018-05-26T05:30:00.616Z,98755.85
2018-05-26T05:32:28.148Z,98758.44
2018-05-26T05:34:55.608Z,98760.05
2018-05-26T05:37:23.078Z,98757.45
2018-05-26T05:39:50.553Z,98759.34
2018-05-26T05:42:18.035Z,98766.50
2018-05-26T05:44:45.808Z,98764.95
2018-05-26T05:47:13.300Z,98764.69
2018-05-26T05:49:40.758Z,98768.30
2018-05-26T05:52:08.223Z,98771.40
2018-05-26T05:54:35.708Z,98771.59
2018-05-26T05:57:03.177Z,98769.30
2018-05-26T05:59:30.667Z,98767.53
2018-05-26T06:01:58.133Z,98762.95
2018-05-26T06:04:25.611Z,98766.55
2018-05-26T06:06:53.096Z,98764.06
2018-05-26T06:09:20.570Z,98770.34
2018-05-26T06:11:48.059Z,98765.87
2018-05-26T06:14:15.528Z,98767.59
2018-05-26T06:16:43.002Z,98769.02
2018-05-26T06:19:10.499Z,98779.12
2018-05-26T06:21:37.975Z,98776.20
2018-05-26T06:24:05.459Z,98772.64
2018-05-26T06:26:32.931Z,98776.45
2018-05-26T06:29:00.399Z,98773.48
2018-05-26T06:31:27.899Z,98779.16
2018-05-26T06:33:55.366Z,98780.02
2018-05-26T06:36:22.851Z,98786.58
2018-05-26T06:38:50.332Z,98790.57
2018-05-26T06:41:18.079Z,98793.73
2018-05-26T06:43:45.567Z,98794.09
2018-05-26T06:46:13.412Z,98790.45
2018-05-26T06:48:40.944Z,98787.56
2018-05-26T06:51:08.421Z,98781.75
2018-05-26T06:53:36.148Z,98774.37
2018-05-26T06:56:03.632Z,98786.86
2018-05-26T06:58:31.103Z,98780.14
2018-05-26T07:00:58.603Z,98782.57
2018-05-26T07:03:26.076Z,98783.64
2018-05-26T07:05:53.551Z,98782.28
2018-05-26T07:08:21.045Z,98785.83
2018-05-26T07:10:48.516Z,98789.69
2018-05-26T07:13:16.019Z,98780.98
2018-05-26T07:15:43.501Z,98777.86
2018-05-26T07:18:10.975Z,98787.13
2018-05-26T07:20:38.465Z,98791.29
2018-05-26T07:23:05.932Z,98788.25
2018-05-26T07:25:34.312Z,98794.57
2018-05-26T07:28:01.780Z,98794.57
2018-05-26T07:30:29.277Z,98789.78
2018-05-26T07:32:56.748Z,98791.94
2018-05-26T07:35:24.218Z,98789.42
2018-05-26T07:37:51.716Z,98797.03
2018-05-26T07:40:19.189Z,98784.37
2018-05-26T07:42:46.678Z,98789.70
2018-05-26T07:45:14.160Z,98787.77
2018-05-26T07:47:41.661Z,98789.50
2018-05-26T07:50:09.134Z,98788.79
2018-05-26T07:52:36.597Z,98795.00
2018-05-26T07:55:04.079Z,98789.61
2018-05-26T07:57:31.557Z,98790.95
2018-05-26T07:59:59.043Z,98786.42
2018-05-26T08:02:26.519Z,98787.08
2018-05-26T08:04:53.984Z,98787.97
2018-05-26T08:07:21.468Z,98781.72
2018-05-26T08:09:48.933Z,98787.17
2018-05-26T08:12:16.443Z,98787.64
2018-05-26T08:14:44.212Z,98782.37
2018-05-26T08:17:11.742Z,98787.11
2018-05-26T08:19:39.187Z,98787.16
2018-05-26T08:22:06.652Z,98785.46
2018-05-26T08:24:34.142Z,98786.48
2018-05-26T08:27:01.619Z,98776.81
2018-05-26T08:29:29.263Z,98784.67
2018-05-26T08:31:56.729Z,98781.45
2018-05-26T08:34:24.200Z,98774.31
2018-05-26T08:36:51.694Z,98778.36
2018-05-26T08:39:19.183Z,98766.06
2018-05-26T08:41:46.671Z,98773.56
2018-05-26T08:44:14.143Z,98765.48
2018-05-26T08:46:41.618Z,98775.70
2018-05-26T08:49:09.108Z,98769.11
2018-05-26T08:51:36.585Z,98767.98
2018-05-26T08:54:04.068Z,98773.91
2018-05-26T08:56:31.550Z,98775.95
2018-05-26T08:58:59.040Z,98772.45
2018-05-26T09:01:26.527Z,98773.73
2018-05-26T09:03:53.992Z,98769.46
2018-05-26T09:06:21.516Z,98764.09
2018-05-26T09:08:48.964Z,98767.20
2018-05-26T09:11:16.468Z,98760.88
2018-05-26T09:13:43.929Z,98767.20
2018-05-26T09:16:11.404Z,98760.27
2018-05-26T09:18:38.904Z,98766.43
2018-05-26T09:21:06.376Z,98767.44
2018-05-26T09:23:33.837Z,98762.42
2018-05-26T09:26:01.320Z,98759.74
2018-05-26T09:28:28.789Z,98760.09
2018-05-26T09:30:56.276Z,98758.98
2018-05-26T09:33:23.737Z,98754.42
2018-05-26T09:35:51.215Z,98755.67
2018-05-26T09:38:18.679Z,98746.75
2018-05-26T09:40:46.156Z,98744.44
2018-05-26T09:43:13.648Z,98752.34
2018-05-26T09:45:41.424Z,98743.73
2018-05-26T09:48:08.924Z,98753.48
2018-05-26T09:50:36.392Z,98746.20
2018-05-26T09:53:03.868Z,98755.32
2018-05-26T09:55:31.349Z,98746.67
2018-05-26T09:57:58.807Z,98742.42
2018-05-26T10:00:26.310Z,98746.02
2018-05-26T10:02:54.395Z,98746.25
2018-05-26T10:05:21.872Z,98737.23
2018-05-26T10:07:49.356Z,98737.92
2018-05-26T10:10:16.817Z,98742.01
2018-05-26T10:12:44.322Z,98738.30
2018-05-26T10:15:11.797Z,98741.07
2018-05-26T10:17:39.267Z,98732.14
2018-05-26T10:20:06.761Z,98732.19
2018-05-26T10:22:34.245Z,98731.77
2018-05-26T10:25:01.958Z,98735.39
2018-05-26T10:27:29.425Z,98728.67
2018-05-26T10:29:57.696Z,98730.42
2018-05-26T10:32:25.307Z,98735.23
2018-05-26T10:34:52.775Z,98732.32
2018-05-26T10:37:20.252Z,98734.66
2018-05-26T10:39:47.715Z,98728.98
2018-05-26T10:42:15.213Z,98723.09
2018-05-26T10:44:42.688Z,98733.41
2018-05-26T10:47:10.205Z,98716.81
2018-05-26T10:49:37.651Z,98720.53
2018-05-26T10:52:05.115Z,98721.86
2018-05-26T10:54:32.601Z,98719.28
2018-05-26T10:57:00.983Z,98722.13
2018-05-26T10:59:28.479Z,98725.08
2018-05-26T11:01:55.940Z,98716.86
2018-05-26T11:04:23.410Z,98715.52
2018-05-26T11:06:50.888Z,98721.42
2018-05-26T11:09:18.357Z,98724.02
2018-05-26T11:11:45.847Z,98720.78
2018-05-26T11:14:13.312Z,98719.20
2018-05-26T11:16:40.804Z,98724.54
2018-05-26T11:19:08.305Z,98721.30
2018-05-26T11:21:35.779Z,98716.27
2018-05-26T11:24:03.385Z,98708.52
2018-05-26T11:26:30.760Z,98700.73
2018-05-26T11:28:58.270Z,98708.59
2018-05-26T11:31:25.740Z,98702.77
2018-05-26T11:33:53.200Z,98701.25
2018-05-26T11:36:20.677Z,98698.79
2018-05-26T11:38:48.147Z,98702.48
2018-05-26T11:41:15.600Z,98702.61
2018-05-26T11:43:43.175Z,98700.47
2018-05-26T11:46:10.544Z,98702.08
2018-05-26T11:48:38.022Z,98694.27
2018-05-26T11:51:05.484Z,98694.59
2018-05-26T11:53:33.346Z,98691.38
2018-05-26T11:56:00.813Z,98685.70
2018-05-26T11:58:28.278Z,98685.31
2018-05-26T12:00:55.768Z,98688.14
2018-05-26T12:03:23.223Z,98686.30
2018-05-26T12:05:50.705Z,98678.33
2018-05-26T12:08:18.160Z,98682.29
2018-05-26T12:10:45.665Z,98679.90
2018-05-26T12:13:13.123Z,98677.44
2018-05-26T12:15:40.575Z,98674.11
2018-05-26T12:18:08.058Z,98659.03
2018-05-26T12:20:35.520Z,98663.41
2018-05-26T12:23:02.984Z,98656.33
2018-05-26T12:25:30.487Z,98656.13
2018-05-26T12:27:57.935Z,98658.38
2018-05-26T12:30:25.411Z,98641.77
2018-05-26T12:32:52.873Z,98641.30
2018-05-26T12:35:20.336Z,98640.39
2018-05-26T12:37:47.807Z,98640.78
2018-05-26T12:40:15.455Z,98645.27
2018-05-26T12:42:42.945Z,98653.41
2018-05-26T12:45:10.411Z,98653.54
2018-05-26T12:47:37.871Z,98653.82
2018-05-26T12:50:05.352Z,98650.06
2018-05-26T12:52:32.815Z,98644.55
2018-05-26T12:55:00.295Z,98644.87
2018-05-26T12:57:27.747Z,98648.80
2018-05-26T12:59:55.201Z,98643.02
2018-05-26T13:02:22.681Z,98641.52
2018-05-26T13:04:50.133Z,98641.13
2018-05-26T13:07:17.613Z,98643.02
2018-05-26T13:09:45.072Z,98637.75
2018-05-26T13:12:12.544Z,98627.34
2018-05-26T13:14:39.996Z,98637.34
2018-05-26T13:17:07.454Z,98635.50
2018-05-26T13:19:34.931Z,98634.31
2018-05-26T13:22:02.383Z,98626.22
2018-05-26T13:24:29.851Z,98629.44
2018-05-26T13:26:57.310Z,98623.06
2018-05-26T13:29:25.211Z,98624.41
2018-05-26T13:31:52.671Z,98625.35
2018-05-26T13:34:20.115Z,98624.59
2018-05-26T13:36:47.602Z,98615.30
2018-05-26T13:39:15.056Z,98614.26
2018-05-26T13:41:42.526Z,98608.38
2018-05-26T13:44:09.981Z,98611.73
2018-05-26T13:46:37.436Z,98609.42
2018-05-26T13:49:04.951Z,98602.57
2018-05-26T13:51:32.451Z,98601.80
2018-05-26T13:53:59.902Z,98606.70
2018-05-26T13:56:27.415Z,98606.70
2018-05-26T13:58:54.831Z,98609.55
2018-05-26T14:01:23.349Z,98606.83
2018-05-26T14:03:50.818Z,98604.09
2018-05-26T14:06:18.280Z,98601.69
2018-05-26T14:08:45.732Z,98600.02
2018-05-26T14:11:13.200Z,98597.17
2018-05-26T14:13:40.662Z,98586.31
2018-05-26T14:16:08.116Z,98586.64
2018-05-26T14:18:35.583Z,98589.98
2018-05-26T14:21:03.037Z,98578.44
2018-05-26T14:23:30.514Z,98589.05
2018-05-26T14:25:57.980Z,98587.43
2018-05-26T14:28:25.430Z,98585.19
2018-05-26T14:30:53.379Z,98589.41
2018-05-26T14:33:20.840Z,98586.92
2018-05-26T14:35:48.309Z,98576.06
2018-05-26T14:38:15.764Z,98578.88
2018-05-26T14:40:43.222Z,98580.10
2018-05-26T14:43:10.692Z,98582.96
2018-05-26T14:45:38.146Z,98576.34
2018-05-26T14:48:05.620Z,98581.47
2018-05-26T14:50:33.296Z,98576.67
2018-05-26T14:53:00.759Z,98577.89
2018-05-26T14:55:28.222Z,98576.42
2018-05-26T14:57:55.681Z,98570.23
2018-05-26T15:00:23.169Z,98572.56
2018-05-26T15:02:50.624Z,98573.84
2018-05-26T15:05:18.070Z,98566.34
2018-05-26T15:07:45.552Z,98566.88
2018-05-26T15:10:13.004Z,98564.78
2018-05-26T15:12:40.508Z,98571.50
2018-05-26T15:15:07.960Z,98568.14
2018-05-26T15:17:35.414Z,98566.40
2018-05-26T15:20:02.889Z,98567.05
2018-05-26T15:22:30.346Z,98563.16
2018-05-26T15:24:57.824Z,98564.83
2018-05-26T15:27:25.273Z,98565.56
2018-05-26T15:29:52.730Z,98560.81
2018-05-26T15:32:20.204Z,98549.42
2018-05-26T15:34:47.662Z,98551.55
2018-05-26T15:37:15.147Z,98551.52
2018-05-26T15:39:42.601Z,98553.48
2018-05-26T15:42:10.053Z,98540.91
2018-05-26T15:44:38.007Z,98547.98
2018-05-26T15:47:05.458Z,98543.78
2018-05-26T15:49:32.928Z,98552.52
2018-05-26T15:52:00.392Z,98546.47
2018-05-26T15:54:27.875Z,98535.86
2018-05-26T15:56:55.335Z,98541.70
2018-05-26T15:59:22.803Z,98544.94
2018-05-26T16:01:50.272Z,98549.58
2018-05-26T16:04:17.720Z,98550.32
2018-05-26T16:06:45.209Z,98539.70
2018-05-26T16:09:12.675Z,98540.61
2018-05-26T16:11:40.248Z,98546.95
2018-05-26T16:14:07.700Z,98542.44
2018-05-26T16:16:35.160Z,98544.02
2018-05-26T16:19:02.648Z,98545.02
2018-05-26T16:21:30.103Z,98548.04
2018-05-26T16:23:57.931Z,98544.66
2018-05-26T16:26:25.396Z,98544.47
2018-05-26T16:28:52.869Z,98539.41
2018-05-26T16:31:20.334Z,98546.28
2018-05-26T16:33:47.853Z,98545.63
2018-05-26T16:36:15.337Z,98556.17
2018-05-26T16:38:42.802Z,98546.74
2018-05-26T16:41:10.264Z,98551.11
2018-05-26T16:43:37.744Z,98546.38
2018-05-26T16:46:05.201Z,98551.77
2018-05-26T16:48:32.676Z,98549.55
2018-05-26T16:51:00.377Z,98555.99
2018-05-26T16:53:27.866Z,98560.36
2018-05-26T16:55:55.316Z,98605.80
2018-05-26T16:58:22.788Z,98588.81
2018-05-26T17:00:50.540Z,98576.27
2018-05-26T17:03:17.997Z,98566.40
2018-05-26T17:05:46.233Z,98562.70
2018-05-26T17:08:13.691Z,98552.31
2018-05-26T17:10:41.158Z,98557.09
2018-05-26T17:13:08.644Z,98553.32
2018-05-26T17:15:36.099Z,98553.73
2018-05-26T17:18:03.577Z,98556.05
2018-05-26T17:20:31.132Z,98561.33
2018-05-26T17:22:58.583Z,98566.89
2018-05-26T17:25:26.053Z,98560.67
2018-05-26T17:27:53.509Z,98563.50
2018-05-26T17:30:20.982Z,98563.31
2018-05-26T17:32:48.444Z,98556.92
2018-05-26T17:35:15.915Z,98553.40
2018-05-26T17:37:43.391Z,98563.23
2018-05-26T17:40:10.847Z,98557.30
2018-05-26T17:42:38.323Z,98565.41
2018-05-26T17:45:05.793Z,98565.66
2018-05-26T17:47:33.255Z,98564.02
2018-05-26T17:50:00.729Z,98577.63
2018-05-26T17:52:28.188Z,98573.89
2018-05-26T17:54:55.676Z,98578.36
2018-05-26T17:57:23.142Z,98570.41
2018-05-26T17:59:50.610Z,98566.80
2018-05-26T18:02:18.083Z,98568.13
2018-05-26T18:04:45.529Z,98563.80
2018-05-26T18:07:13.031Z,98568.13
2018-05-26T18:09:40.495Z,98563.77
2018-05-26T18:12:07.960Z,98569.24
2018-05-26T18:14:35.431Z,98570.92
2018-05-26T18:17:02.889Z,98568.95
2018-05-26T18:19:30.393Z,98567.19
2018-05-26T18:21:57.849Z,98565.41
2018-05-26T18:24:25.310Z,98559.10
2018-05-26T18:26:52.796Z,98560.03
2018-05-26T18:29:20.256Z,98555.41
2018-05-26T18:31:47.755Z,98563.53
2018-05-26T18:34:15.213Z,98564.96
2018-05-26T18:36:42.693Z,98562.22
2018-05-26T18:39:10.160Z,98566.48
2018-05-26T18:41:37.628Z,98567.11
2018-05-26T18:44:05.108Z,98575.64
2018-05-26T18:46:32.559Z,98576.77
2018-05-26T18:49:00.029Z,98574.97
2018-05-26T18:51:27.773Z,98574.70
2018-05-26T18:53:55.232Z,98579.68
2018-05-26T18:56:22.717Z,98580.80
2018-05-26T18:58:50.180Z,98584.20
2018-05-26T19:01:17.641Z,98587.72
2018-05-26T19:03:45.116Z,98587.07
2018-05-26T19:06:12.564Z,98592.09
2018-05-26T19:08:40.050Z,98600.22
2018-05-26T19:11:07.521Z,98602.48
2018-05-26T19:13:35.139Z,98604.17
2018-05-26T19:16:02.596Z,98608.34
2018-05-26T19:18:30.053Z,98619.73
2018-05-26T19:20:57.564Z,98621.95
2018-05-26T19:23:25.031Z,98620.98
2018-05-26T19:25:52.505Z,98616.61
2018-05-26T19:28:19.969Z,98619.34
2018-05-26T19:30:47.429Z,98612.64
2018-05-26T19:33:14.899Z,98624.89
2018-05-26T19:35:42.357Z,98620.57
2018-05-26T19:38:09.853Z,98634.52
2018-05-26T19:40:37.321Z,98635.02
2018-05-26T19:43:04.788Z,98637.03
2018-05-26T19:45:32.259Z,98634.05
2018-05-26T19:47:59.720Z,98641.36
2018-05-26T19:50:27.220Z,98643.58
2018-05-26T19:52:54.688Z,98650.30
2018-05-26T19:55:22.147Z,98650.28
2018-05-26T19:57:49.623Z,98651.04
2018-05-26T20:00:17.092Z,98650.36
2018-05-26T20:02:44.580Z,98650.80
2018-05-26T20:05:12.043Z,98655.73
2018-05-26T20:07:39.521Z,98652.48
2018-05-26T20:10:07.009Z,98658.11
2018-05-26T20:12:34.471Z,98651.98
2018-05-26T20:15:01.960Z,98661.78
2018-05-26T20:17:29.433Z,98662.80
2018-05-26T20:19:56.936Z,98664.48
2018-05-26T20:22:24.407Z,98669.23
2018-05-26T20:24:51.868Z,98668.92
2018-05-26T20:27:19.370Z,98664.64
2018-05-26T20:29:46.828Z,98665.48
2018-05-26T20:32:14.752Z,98659.81
2018-05-26T20:34:42.244Z,98669.94
2018-05-26T20:37:09.708Z,98664.59
2018-05-26T20:39:37.185Z,98661.91
2018-05-26T20:42:04.648Z,98664.19
2018-05-26T20:44:32.132Z,98668.34
2018-05-26T20:46:59.600Z,98660.73
2018-05-26T20:49:27.075Z,98664.56
2018-05-26T20:51:54.560Z,98664.86
2018-05-26T20:54:22.036Z,98666.87
2018-05-26T20:56:49.528Z,98668.81
2018-05-26T20:59:17.013Z,98675.57
2018-05-26T21:01:44.508Z,98677.44
2018-05-26T21:04:11.966Z,98679.48
2018-05-26T21:06:39.438Z,98679.91
2018-05-26T21:09:06.935Z,98676.64
2018-05-26T21:11:34.408Z,98676.89
2018-05-26T21:14:02.213Z,98678.90
2018-05-26T21:16:29.679Z,98694.94
2018-05-26T21:18:57.147Z,98695.84
2018-05-26T21:21:24.635Z,98694.95
2018-05-26T21:23:52.096Z,98689.52
2018-05-26T21:26:19.592Z,98695.69
2018-05-26T21:28:47.043Z,98693.54
2018-05-26T21:31:14.511Z,98702.44
2018-05-26T21:33:42.005Z,98698.54
2018-05-26T21:36:09.469Z,98702.30
2018-05-26T21:38:36.957Z,98698.28
2018-05-26T21:41:04.420Z,98700.42
2018-05-26T21:43:31.887Z,98700.58
2018-05-26T21:45:59.366Z,98704.70
2018-05-26T21:48:26.828Z,98694.88
2018-05-26T21:50:54.315Z,98703.26
2018-05-26T21:53:21.788Z,98702.36
2018-05-26T21:55:49.251Z,98702.06
2018-05-26T21:58:16.740Z,98699.52
2018-05-26T22:00:44.204Z,98696.41
2018-05-26T22:03:11.684Z,98696.88
2018-05-26T22:05:39.143Z,98692.56
2018-05-26T22:08:06.621Z,98698.34
2018-05-26T22:10:34.088Z,98697.75
2018-05-26T22:13:01.571Z,98696.23
2018-05-26T22:15:29.061Z,98697.45
2018-05-26T22:17:56.529Z,98689.79
2018-05-26T22:20:24.016Z,98693.39
2018-05-26T22:22:51.475Z,98697.61
2018-05-26T22:25:18.948Z,98692.36
2018-05-26T22:27:46.424Z,98677.92
2018-05-26T22:30:13.898Z,98676.94
2018-05-26T22:32:41.387Z,98677.55
2018-05-26T22:35:08.852Z,98675.72
2018-05-26T22:37:36.316Z,98669.52
2018-05-26T22:40:03.795Z,98678.69
2018-05-26T22:42:31.276Z,98677.42
2018-05-26T22:44:58.764Z,98683.06
2018-05-26T22:47:26.234Z,98683.30
2018-05-26T22:49:53.707Z,98690.13
2018-05-26T22:52:21.193Z,98685.09
2018-05-26T22:54:48.660Z,98687.14
2018-05-26T22:57:16.141Z,98691.38
2018-05-26T22:59:43.606Z,98684.44
2018-05-26T23:02:12.001Z,98682.95
2018-05-26T23:04:39.469Z,98678.72
2018-05-26T23:07:06.977Z,98677.64
2018-05-26T23:09:35.452Z,98676.91
2018-05-26T23:12:02.922Z,98671.09
2018-05-26T23:14:30.395Z,98674.53
2018-05-26T23:16:57.860Z,98674.52
2018-05-26T23:19:25.349Z,98677.64
2018-05-26T23:21:52.828Z,98675.70
2018-05-26T23:24:20.305Z,98675.34
2018-05-26T23:26:47.793Z,98680.25
2018-05-26T23:29:15.259Z,98673.53
2018-05-26T23:31:43.052Z,98672.06
2018-05-26T23:34:10.526Z,98672.26
2018-05-26T23:36:38.126Z,98671.05
2018-05-26T23:39:06.482Z,98670.27
2018-05-26T23:41:33.965Z,98665.07
2018-05-26T23:44:01.456Z,98667.09
2018-05-26T23:46:28.932Z,98664.56
2018-05-26T23:48:56.398Z,98665.27
2018-05-26T23:51:23.885Z,98658.42
2018-05-26T23:53:51.807Z,98658.58
2018-05-26T23:56:19.296Z,98655.44
2018-05-26T23:58:46.951Z,98653.64
